createdAt,value
2023-03-25T00:01:44.153Z,8.94
2023-03-25T00:04:15.161Z,8.90
2023-03-25T00:06:48.580Z,8.88
2023-03-25T00:09:20.686Z,8.74
2023-03-25T00:11:52.496Z,8.90
2023-03-25T00:14:24.732Z,8.82
2023-03-25T00:16:55.374Z,8.91
2023-03-25T00:19:29.927Z,8.76
2023-03-25T00:22:01.065Z,8.72
2023-03-25T00:24:33.719Z,8.69
2023-03-25T00:27:05.784Z,8.66
2023-03-25T00:29:37.819Z,8.73
2023-03-25T00:32:10.353Z,8.58
2023-03-25T00:34:44.369Z,8.54
2023-03-25T00:37:21.973Z,8.54
2023-03-25T00:39:55.354Z,8.52
2023-03-25T00:42:28.974Z,8.70
2023-03-25T00:44:59.445Z,8.58
2023-03-25T00:47:31.512Z,8.48
2023-03-25T00:50:03.770Z,8.40
2023-03-25T00:52:34.484Z,8.36
2023-03-25T00:55:07.015Z,8.38
2023-03-25T00:57:38.059Z,8.31
2023-03-25T01:00:11.306Z,8.49
2023-03-25T01:02:42.580Z,8.56
2023-03-25T01:05:15.714Z,8.58
2023-03-25T01:07:47.898Z,8.60
2023-03-25T01:10:20.695Z,8.52
2023-03-25T01:12:52.468Z,8.38
2023-03-25T01:15:23.242Z,8.61
2023-03-25T01:17:53.997Z,8.52
2023-03-25T01:20:26.235Z,8.35
2023-03-25T01:22:59.514Z,8.27
2023-03-25T01:25:30.202Z,8.41
2023-03-25T01:28:07.883Z,8.68
2023-03-25T01:30:34.236Z,8.44
2023-03-25T01:33:06.643Z,8.34
2023-03-25T01:35:37.100Z,8.29
2023-03-25T01:38:07.834Z,8.33
2023-03-25T01:40:38.414Z,8.24
2023-03-25T01:43:13.340Z,8.33
2023-03-25T01:45:45.300Z,8.39
2023-03-25T01:48:19.108Z,8.26
2023-03-25T01:50:55.603Z,8.30
2023-03-25T01:53:31.274Z,8.14
2023-03-25T01:56:05.651Z,8.19
2023-03-25T01:58:38.966Z,8.21
2023-03-25T02:01:11.355Z,8.08
2023-03-25T02:03:45.130Z,8.21
2023-03-25T02:06:33.108Z,8.18
2023-03-25T02:09:06.984Z,8.28
2023-03-25T02:11:39.555Z,8.26
2023-03-25T02:14:17.256Z,8.45
2023-03-25T02:16:58.492Z,8.48
2023-03-25T02:19:41.114Z,8.60
2023-03-25T02:22:20.895Z,8.54
2023-03-25T02:25:28.036Z,8.55
2023-03-25T02:28:16.442Z,8.66
2023-03-25T02:31:19.037Z,8.71
2023-03-25T02:34:17.149Z,8.68
2023-03-25T02:37:00.569Z,8.74
2023-03-25T02:39:54.258Z,8.75
2023-03-25T02:42:37.444Z,8.83
2023-03-25T02:45:16.997Z,8.98
2023-03-25T02:47:50.625Z,8.87
2023-03-25T02:50:28.585Z,8.98
2023-03-25T02:53:02.434Z,8.81
2023-03-25T02:55:36.080Z,8.70
2023-03-25T02:58:09.881Z,8.76
2023-03-25T03:00:40.803Z,8.63
2023-03-25T03:03:11.692Z,8.86
2023-03-25T03:05:48.070Z,8.80
2023-03-25T03:08:30.398Z,9.03
2023-03-25T03:11:27.433Z,9.06
2023-03-25T03:14:08.558Z,9.14
2023-03-25T03:17:00.562Z,9.28
2023-03-25T03:19:52.862Z,9.34
2023-03-25T03:22:42.134Z,9.34
2023-03-25T03:25:22.383Z,9.12
2023-03-25T03:28:21.928Z,9.09
2023-03-25T03:31:07.177Z,8.94
2023-03-25T03:33:53.974Z,8.86
2023-03-25T03:36:31.724Z,8.94
2023-03-25T03:39:07.379Z,8.76
2023-03-25T03:41:41.249Z,8.86
2023-03-25T03:44:14.981Z,8.81
2023-03-25T03:46:58.977Z,8.81
2023-03-25T03:49:33.744Z,8.79
2023-03-25T03:52:09.864Z,8.88
2023-03-25T03:54:43.734Z,8.59
2023-03-25T03:57:29.922Z,8.72
2023-03-25T04:00:10.796Z,8.78
2023-03-25T04:02:53.874Z,8.58
2023-03-25T04:05:27.153Z,8.61
2023-03-25T04:08:04.181Z,8.54
2023-03-25T04:10:57.379Z,8.65
2023-03-25T04:13:32.054Z,8.73
2023-03-25T04:16:04.236Z,8.52
2023-03-25T04:18:34.710Z,8.74
2023-03-25T04:21:07.044Z,8.66
2023-03-25T04:23:39.167Z,8.73
2023-03-25T04:26:12.688Z,8.78
2023-03-25T04:28:44.685Z,8.75
2023-03-25T04:31:16.885Z,8.92
2023-03-25T04:33:48.660Z,8.89
2023-03-25T04:36:20.126Z,8.80
2023-03-25T04:38:53.285Z,8.85
2023-03-25T04:41:24.500Z,8.76
2023-03-25T04:43:55.480Z,8.72
2023-03-25T04:46:26.874Z,8.64
2023-03-25T04:48:58.469Z,8.66
2023-03-25T04:51:30.671Z,8.44
2023-03-25T04:54:01.294Z,8.54
2023-03-25T04:56:31.785Z,8.56
2023-03-25T04:59:02.999Z,8.46
2023-03-25T05:01:37.848Z,8.45
2023-03-25T05:04:10.928Z,8.46
2023-03-25T05:06:44.670Z,8.56
2023-03-25T05:09:19.098Z,8.60
2023-03-25T05:11:52.739Z,8.64
2023-03-25T05:14:23.958Z,8.58
2023-03-25T05:16:56.177Z,8.55
2023-03-25T05:19:29.269Z,8.45
2023-03-25T05:22:01.397Z,8.40
2023-03-25T05:24:32.135Z,8.58
2023-03-25T05:27:04.238Z,8.44
2023-03-25T05:29:34.949Z,8.72
2023-03-25T05:32:07.261Z,8.84
2023-03-25T05:34:38.700Z,8.94
2023-03-25T05:37:10.205Z,8.90
2023-03-25T05:39:43.970Z,8.99
2023-03-25T05:42:13.360Z,9.72
2023-03-25T05:44:45.829Z,10.77
2023-03-25T05:47:16.763Z,11.59
2023-03-25T05:49:47.879Z,12.10
2023-03-25T05:52:20.104Z,11.92
2023-03-25T05:54:51.786Z,11.22
2023-03-25T05:57:22.424Z,10.57
2023-03-25T05:59:55.718Z,10.18
2023-03-25T06:02:26.286Z,10.03
2023-03-25T06:04:57.148Z,10.00
2023-03-25T06:07:27.685Z,9.87
2023-03-25T06:09:59.166Z,9.78
2023-03-25T06:12:31.436Z,9.77
2023-03-25T06:15:01.963Z,9.78
2023-03-25T06:17:34.853Z,9.74
2023-03-25T06:20:12.369Z,9.65
2023-03-25T06:22:46.685Z,9.70
2023-03-25T06:25:20.652Z,9.65
2023-03-25T06:27:52.145Z,9.59
2023-03-25T06:30:23.165Z,9.52
2023-03-25T06:32:55.583Z,9.55
2023-03-25T06:35:26.352Z,9.56
2023-03-25T06:37:57.039Z,9.65
2023-03-25T06:40:27.525Z,9.62
2023-03-25T06:42:58.149Z,9.69
2023-03-25T06:45:30.786Z,9.95
2023-03-25T06:48:01.946Z,9.99
2023-03-25T06:50:33.405Z,9.86
2023-03-25T06:53:05.636Z,10.09
2023-03-25T06:55:36.159Z,10.14
2023-03-25T06:58:07.774Z,10.07
2023-03-25T07:00:39.085Z,10.10
2023-03-25T07:03:10.824Z,10.04
2023-03-25T07:05:43.606Z,9.96
2023-03-25T07:08:14.175Z,9.90
2023-03-25T07:10:44.704Z,9.97
2023-03-25T07:13:16.750Z,9.90
2023-03-25T07:15:48.611Z,9.91
2023-03-25T07:18:19.386Z,10.04
2023-03-25T07:20:49.876Z,10.14
2023-03-25T07:23:21.858Z,10.28
2023-03-25T07:25:53.483Z,10.32
2023-03-25T07:28:25.591Z,10.46
2023-03-25T07:30:56.027Z,10.51
2023-03-25T07:33:26.535Z,10.66
2023-03-25T07:36:01.154Z,10.80
2023-03-25T07:38:32.180Z,10.86
2023-03-25T07:41:10.532Z,11.01
2023-03-25T07:43:45.453Z,11.22
2023-03-25T07:46:16.894Z,11.09
2023-03-25T07:48:49.046Z,11.22
2023-03-25T07:51:19.782Z,11.33
2023-03-25T07:53:52.574Z,11.52
2023-03-25T07:56:25.071Z,11.46
2023-03-25T07:58:56.039Z,11.63
2023-03-25T08:01:29.378Z,11.63
2023-03-25T08:03:59.142Z,11.72
2023-03-25T08:06:29.614Z,11.69
2023-03-25T08:09:04.533Z,11.62
2023-03-25T08:11:35.446Z,11.75
2023-03-25T08:14:09.038Z,12.10
2023-03-25T08:16:42.144Z,12.20
2023-03-25T08:19:13.066Z,12.22
2023-03-25T08:21:45.203Z,12.42
2023-03-25T08:24:15.820Z,12.31
2023-03-25T08:26:48.219Z,12.49
2023-03-25T08:29:23.002Z,12.56
2023-03-25T08:31:53.602Z,12.20
2023-03-25T08:34:28.617Z,11.98
2023-03-25T08:36:59.079Z,12.20
2023-03-25T08:39:35.465Z,12.38
2023-03-25T08:42:11.840Z,12.70
2023-03-25T08:44:53.324Z,12.93
2023-03-25T08:47:25.138Z,12.99
2023-03-25T08:49:59.466Z,13.04
2023-03-25T08:52:31.317Z,12.84
2023-03-25T08:55:02.186Z,13.10
2023-03-25T08:57:32.796Z,13.13
2023-03-25T09:00:13.584Z,12.87
2023-03-25T09:02:45.994Z,12.60
2023-03-25T09:05:16.722Z,12.79
2023-03-25T09:07:47.808Z,12.54
2023-03-25T09:10:18.884Z,13.01
2023-03-25T09:12:50.392Z,13.26
2023-03-25T09:15:21.193Z,13.68
2023-03-25T09:17:55.935Z,13.74
2023-03-25T09:20:28.362Z,13.68
2023-03-25T09:23:02.114Z,13.10
2023-03-25T09:25:32.786Z,12.83
2023-03-25T09:28:05.947Z,12.13
2023-03-25T09:30:36.978Z,11.81
2023-03-25T09:33:10.216Z,11.14
2023-03-25T09:35:44.067Z,10.74
2023-03-25T09:38:14.792Z,10.71
2023-03-25T09:40:47.628Z,10.88
2023-03-25T09:43:41.020Z,10.88
2023-03-25T09:46:11.580Z,11.23
2023-03-25T09:48:44.963Z,11.76
2023-03-25T09:51:21.753Z,12.32
2023-03-25T09:54:19.606Z,12.71
2023-03-25T09:56:51.997Z,13.14
2023-03-25T09:59:28.633Z,13.07
2023-03-25T10:02:05.081Z,12.91
2023-03-25T10:04:54.592Z,12.66
2023-03-25T10:07:46.056Z,12.41
2023-03-25T10:10:40.353Z,12.32
2023-03-25T10:13:42.999Z,12.18
2023-03-25T10:16:20.893Z,12.12
2023-03-25T10:19:14.254Z,12.18
2023-03-25T10:22:10.114Z,12.11
2023-03-25T10:24:55.281Z,12.56
2023-03-25T10:27:34.663Z,12.64
2023-03-25T10:30:17.426Z,13.12
2023-03-25T10:32:55.794Z,13.08
2023-03-25T10:35:30.981Z,13.24
2023-03-25T10:38:13.834Z,13.46
2023-03-25T10:40:47.139Z,13.32
2023-03-25T10:43:38.829Z,13.92
2023-03-25T10:46:29.958Z,15.24
2023-03-25T10:49:03.088Z,14.63
2023-03-25T10:51:37.091Z,14.29
2023-03-25T10:54:08.093Z,13.98
2023-03-25T10:56:41.931Z,14.01
2023-03-25T10:59:25.603Z,14.30
2023-03-25T11:01:57.875Z,13.95
2023-03-25T11:04:34.599Z,14.06
2023-03-25T11:07:08.630Z,14.28
2023-03-25T11:09:40.822Z,13.76
2023-03-25T11:12:11.290Z,13.70
2023-03-25T11:14:42.511Z,13.90
2023-03-25T11:17:22.606Z,14.47
2023-03-25T11:20:00.705Z,14.33
2023-03-25T11:22:34.273Z,14.08
2023-03-25T11:25:10.476Z,13.74
2023-03-25T11:27:50.247Z,13.48
2023-03-25T11:30:23.892Z,12.86
2023-03-25T11:33:10.675Z,11.68
2023-03-25T11:35:48.171Z,10.61
2023-03-25T11:38:24.747Z,10.68
2023-03-25T11:40:58.589Z,11.00
2023-03-25T11:43:37.788Z,11.38
2023-03-25T11:46:15.255Z,11.42
2023-03-25T11:48:47.262Z,11.35
2023-03-25T11:51:23.448Z,11.42
2023-03-25T11:54:06.177Z,11.66
2023-03-25T11:56:39.910Z,11.78
2023-03-25T11:59:19.240Z,11.84
2023-03-25T12:01:52.972Z,12.20
2023-03-25T12:04:26.688Z,12.94
2023-03-25T12:07:03.679Z,13.40
2023-03-25T12:09:36.708Z,13.70
2023-03-25T12:12:16.715Z,13.88
2023-03-25T12:14:55.667Z,14.23
2023-03-25T12:17:32.496Z,13.86
2023-03-25T12:20:31.323Z,13.66
2023-03-25T12:23:17.416Z,13.50
2023-03-25T12:25:54.720Z,13.42
2023-03-25T12:28:31.414Z,13.62
2023-03-25T12:31:22.191Z,13.97
2023-03-25T12:34:12.621Z,14.00
2023-03-25T12:37:00.076Z,14.05
2023-03-25T12:39:46.086Z,13.80
2023-03-25T12:42:23.841Z,13.62
2023-03-25T12:45:07.153Z,13.42
2023-03-25T12:47:42.484Z,13.34
2023-03-25T12:50:28.062Z,13.76
2023-03-25T12:53:18.382Z,14.00
2023-03-25T12:56:11.313Z,13.74
2023-03-25T12:59:07.183Z,13.58
2023-03-25T13:01:49.443Z,12.98
2023-03-25T13:04:48.986Z,12.75
2023-03-25T13:07:32.087Z,12.48
2023-03-25T13:10:18.427Z,12.38
2023-03-25T13:12:58.176Z,12.14
2023-03-25T13:15:43.027Z,11.74
2023-03-25T13:18:38.959Z,10.85
2023-03-25T13:21:19.082Z,10.54
2023-03-25T13:23:56.017Z,11.08
2023-03-25T13:26:34.523Z,10.86
2023-03-25T13:29:06.858Z,10.84
2023-03-25T13:31:42.100Z,10.77
2023-03-25T13:34:30.717Z,10.62
2023-03-25T13:37:04.717Z,10.73
2023-03-25T13:39:56.743Z,10.78
2023-03-25T13:42:45.496Z,10.78
2023-03-25T13:45:22.809Z,10.82
2023-03-25T13:48:15.069Z,11.05
2023-03-25T13:50:46.676Z,10.97
2023-03-25T13:53:44.326Z,10.98
2023-03-25T13:56:43.479Z,10.98
2023-03-25T13:59:34.899Z,11.14
2023-03-25T14:02:32.489Z,11.40
2023-03-25T14:05:12.696Z,11.32
2023-03-25T14:08:12.423Z,11.36
2023-03-25T14:10:55.543Z,11.06
2023-03-25T14:13:30.474Z,11.09
2023-03-25T14:16:07.474Z,11.01
2023-03-25T14:18:43.703Z,11.01
2023-03-25T14:21:26.346Z,11.29
2023-03-25T14:24:16.383Z,11.64
2023-03-25T14:26:53.054Z,11.86
2023-03-25T14:29:41.551Z,11.86
2023-03-25T14:32:21.947Z,11.86
2023-03-25T14:34:54.786Z,11.92
2023-03-25T14:37:29.677Z,11.95
2023-03-25T14:40:05.185Z,11.97
2023-03-25T14:42:44.697Z,11.84
2023-03-25T14:45:35.109Z,12.02
2023-03-25T14:48:16.088Z,12.22
2023-03-25T14:50:43.089Z,12.36
2023-03-25T14:53:16.564Z,12.52
2023-03-25T14:55:48.470Z,12.69
2023-03-25T14:58:27.762Z,12.45
2023-03-25T15:01:01.442Z,12.58
2023-03-25T15:03:37.735Z,12.52
2023-03-25T15:06:11.924Z,12.65
2023-03-25T15:08:46.102Z,12.61
2023-03-25T15:11:19.621Z,12.68
2023-03-25T15:13:53.383Z,12.66
2023-03-25T15:16:48.414Z,12.68
2023-03-25T15:19:20.840Z,12.64
2023-03-25T15:22:04.974Z,12.57
2023-03-25T15:24:38.834Z,12.64
2023-03-25T15:27:28.722Z,12.55
2023-03-25T15:30:18.084Z,12.55
2023-03-25T15:33:08.369Z,12.56
2023-03-25T15:35:47.133Z,12.60
2023-03-25T15:38:38.898Z,12.47
2023-03-25T15:41:32.072Z,12.53
2023-03-25T15:44:16.551Z,12.58
2023-03-25T15:47:13.253Z,12.74
2023-03-25T15:49:50.770Z,12.52
2023-03-25T15:52:36.041Z,12.18
2023-03-25T15:55:25.621Z,12.10
2023-03-25T15:58:02.049Z,11.98
2023-03-25T16:00:36.792Z,11.86
2023-03-25T16:03:16.496Z,11.62
2023-03-25T16:05:51.815Z,11.68
2023-03-25T16:08:35.749Z,11.56
2023-03-25T16:11:22.569Z,11.67
2023-03-25T16:14:10.456Z,11.73
2023-03-25T16:16:44.048Z,11.37
2023-03-25T16:19:17.971Z,10.52
2023-03-25T16:21:52.436Z,10.00
2023-03-25T16:24:25.982Z,9.78
2023-03-25T16:26:59.453Z,9.78
2023-03-25T16:29:32.304Z,9.92
2023-03-25T16:32:09.211Z,9.68
2023-03-25T16:34:41.633Z,9.98
2023-03-25T16:37:14.247Z,9.89
2023-03-25T16:39:46.847Z,9.92
2023-03-25T16:42:34.350Z,10.05
2023-03-25T16:45:06.623Z,10.09
2023-03-25T16:47:40.252Z,9.94
2023-03-25T16:50:14.027Z,10.08
2023-03-25T16:52:44.891Z,10.10
2023-03-25T16:55:30.385Z,9.85
2023-03-25T16:58:03.221Z,10.07
2023-03-25T17:00:43.487Z,9.88
2023-03-25T17:03:18.349Z,9.92
2023-03-25T17:05:54.599Z,10.16
2023-03-25T17:08:26.858Z,10.00
2023-03-25T17:11:00.192Z,10.22
2023-03-25T17:13:38.579Z,10.24
2023-03-25T17:16:11.462Z,10.18
2023-03-25T17:18:43.743Z,10.38
2023-03-25T17:21:19.280Z,10.24
2023-03-25T17:23:50.387Z,10.24
2023-03-25T17:26:24.726Z,10.34
2023-03-25T17:28:58.378Z,10.00
2023-03-25T17:31:37.970Z,10.10
2023-03-25T17:34:12.111Z,10.06
2023-03-25T17:36:49.173Z,10.16
2023-03-25T17:39:22.849Z,9.88
2023-03-25T17:42:03.037Z,10.01
2023-03-25T17:44:40.097Z,10.05
2023-03-25T17:47:16.641Z,10.02
2023-03-25T17:49:51.259Z,9.88
2023-03-25T17:52:23.874Z,9.98
2023-03-25T17:54:56.823Z,9.94
2023-03-25T17:57:34.716Z,10.10
2023-03-25T18:00:10.823Z,10.02
2023-03-25T18:02:43.284Z,9.90
2023-03-25T18:05:15.533Z,9.81
2023-03-25T18:07:46.456Z,9.74
2023-03-25T18:10:22.073Z,9.80
2023-03-25T18:12:52.723Z,9.75
2023-03-25T18:15:25.128Z,9.68
2023-03-25T18:17:56.473Z,9.74
2023-03-25T18:20:34.180Z,9.76
2023-03-25T18:23:06.440Z,9.80
2023-03-25T18:25:37.172Z,9.77
2023-03-25T18:28:10.437Z,9.95
2023-03-25T18:30:49.826Z,9.84
2023-03-25T18:33:21.461Z,10.08
2023-03-25T18:35:57.074Z,10.00
2023-03-25T18:38:28.740Z,10.10
2023-03-25T18:40:59.298Z,10.14
2023-03-25T18:43:29.860Z,10.13
2023-03-25T18:46:02.703Z,10.22
2023-03-25T18:48:33.702Z,10.08
2023-03-25T18:51:04.493Z,10.20
2023-03-25T18:53:36.849Z,10.10
2023-03-25T18:56:09.450Z,9.98
2023-03-25T18:58:40.072Z,9.82
2023-03-25T19:01:15.379Z,9.80
2023-03-25T19:03:46.944Z,9.72
2023-03-25T19:06:19.613Z,9.88
2023-03-25T19:08:51.714Z,9.91
2023-03-25T19:11:22.715Z,9.97
2023-03-25T19:13:54.068Z,10.04
2023-03-25T19:16:25.574Z,10.00
2023-03-25T19:18:56.657Z,9.89
2023-03-25T19:21:28.330Z,9.65
2023-03-25T19:23:58.946Z,9.64
2023-03-25T19:26:29.449Z,9.61
2023-03-25T19:29:00.973Z,9.55
2023-03-25T19:31:31.636Z,9.53
2023-03-25T19:34:02.910Z,9.39
2023-03-25T19:36:35.266Z,9.41
2023-03-25T19:39:06.175Z,9.37
2023-03-25T19:41:38.270Z,9.29
2023-03-25T19:44:09.357Z,8.98
2023-03-25T19:46:39.965Z,8.98
2023-03-25T19:49:11.002Z,9.04
2023-03-25T19:51:43.564Z,8.93
2023-03-25T19:54:15.368Z,9.05
2023-03-25T19:56:46.136Z,8.95
2023-03-25T19:59:18.038Z,8.88
2023-03-25T20:01:51.332Z,8.94
2023-03-25T20:04:23.550Z,9.10
2023-03-25T20:06:56.411Z,8.90
2023-03-25T20:09:28.601Z,8.96
2023-03-25T20:11:59.151Z,9.01
2023-03-25T20:14:32.482Z,9.03
2023-03-25T20:17:03.206Z,9.08
2023-03-25T20:19:33.767Z,9.14
2023-03-25T20:22:12.230Z,9.19
2023-03-25T20:24:36.511Z,9.20
2023-03-25T20:27:08.065Z,9.16
2023-03-25T20:29:39.328Z,9.12
2023-03-25T20:32:11.045Z,9.07
2023-03-25T20:34:42.095Z,8.99
2023-03-25T20:37:14.332Z,9.15
2023-03-25T20:39:46.860Z,9.02
2023-03-25T20:42:17.502Z,9.04
2023-03-25T20:44:48.254Z,9.04
2023-03-25T20:47:19.004Z,9.08
2023-03-25T20:49:49.569Z,8.86
2023-03-25T20:52:20.818Z,8.88
2023-03-25T20:54:52.948Z,8.92
2023-03-25T20:57:24.067Z,8.90
2023-03-25T20:59:56.562Z,8.78
2023-03-25T21:02:27.298Z,8.76
2023-03-25T21:04:59.884Z,8.86
2023-03-25T21:07:37.672Z,8.82
2023-03-25T21:10:10.710Z,8.78
2023-03-25T21:12:44.653Z,8.68
2023-03-25T21:15:15.776Z,8.64
2023-03-25T21:17:48.608Z,8.29
2023-03-25T21:20:20.964Z,8.19
2023-03-25T21:22:51.929Z,8.08
2023-03-25T21:25:25.084Z,8.10
2023-03-25T21:27:55.541Z,8.02
2023-03-25T21:30:26.432Z,7.96
2023-03-25T21:32:57.018Z,7.88
2023-03-25T21:35:30.042Z,7.92
2023-03-25T21:38:01.449Z,7.94
2023-03-25T21:40:39.738Z,8.06
2023-03-25T21:43:05.853Z,8.02
2023-03-25T21:45:36.399Z,7.98
2023-03-25T21:48:08.626Z,7.98
2023-03-25T21:50:39.413Z,7.98
2023-03-25T21:53:11.800Z,7.92
2023-03-25T21:55:44.091Z,7.92
2023-03-25T21:58:14.722Z,8.02
2023-03-25T22:00:46.450Z,8.01
2023-03-25T22:03:18.853Z,8.03
2023-03-25T22:05:51.677Z,7.92
2023-03-25T22:08:22.427Z,7.99
2023-03-25T22:10:54.496Z,8.13
2023-03-25T22:13:25.781Z,8.11
2023-03-25T22:15:56.659Z,8.02
2023-03-25T22:18:27.957Z,8.07
2023-03-25T22:21:10.412Z,8.06
2023-03-25T22:23:42.280Z,8.14
2023-03-25T22:26:14.322Z,8.11
2023-03-25T22:28:47.135Z,8.13
2023-03-25T22:31:19.657Z,8.25
2023-03-25T22:33:51.909Z,8.22
2023-03-25T22:36:22.796Z,8.32
2023-03-25T22:38:55.730Z,8.34
2023-03-25T22:41:26.541Z,8.34
2023-03-25T22:44:01.029Z,8.53
2023-03-25T22:46:32.346Z,9.76
2023-03-25T22:49:06.466Z,10.70
2023-03-25T22:51:37.531Z,10.82
2023-03-25T22:54:10.121Z,10.18
2023-03-25T22:56:42.713Z,9.51
2023-03-25T22:59:16.730Z,9.24
2023-03-25T23:01:48.834Z,8.98
2023-03-25T23:04:19.356Z,8.80
2023-03-25T23:07:04.675Z,8.74
2023-03-25T23:09:23.880Z,8.68
2023-03-25T23:11:54.291Z,8.64
2023-03-25T23:14:25.072Z,8.64
2023-03-25T23:16:57.777Z,8.52
2023-03-25T23:19:30.445Z,8.46
2023-03-25T23:22:02.372Z,8.44
2023-03-25T23:24:39.277Z,8.50
2023-03-25T23:27:12.412Z,8.52
2023-03-25T23:29:43.063Z,8.36
2023-03-25T23:32:14.815Z,8.52
2023-03-25T23:34:45.827Z,8.48
2023-03-25T23:37:20.986Z,8.46
2023-03-25T23:39:53.116Z,8.44
2023-03-25T23:42:23.636Z,8.48
2023-03-25T23:44:55.914Z,8.47
2023-03-25T23:47:26.497Z,8.44
2023-03-25T23:49:58.090Z,8.48
2023-03-25T23:52:28.879Z,8.60
2023-03-25T23:54:59.418Z,8.42
2023-03-25T23:57:30.863Z,8.38
